sensor_id;sensor_type;location;lat;lon;timestamp;P1;durP1;ratioP1;P2;durP2;ratioP2
22525;SDS011;11429;50.842;4.386;2022-12-19T00:01:20;26.13;;;13.93;;
22525;SDS011;11429;50.842;4.386;2022-12-19T00:03:48;27.77;;;14.13;;
22525;SDS011;11429;50.842;4.386;2022-12-19T00:06:18;27.98;;;14.85;;
22525;SDS011;11429;50.842;4.386;2022-12-19T00:08:46;25.58;;;14.32;;
22525;SDS011;11429;50.842;4.386;2022-12-19T00:11:14;23.67;;;14.00;;
22525;SDS011;11429;50.842;4.386;2022-12-19T00:13:41;25.77;;;15.05;;
22525;SDS011;11429;50.842;4.386;2022-12-19T00:16:08;25.90;;;13.45;;
22525;SDS011;11429;50.842;4.386;2022-12-19T00:18:39;24.45;;;13.52;;
22525;SDS011;11429;50.842;4.386;2022-12-19T00:21:06;28.50;;;13.55;;
22525;SDS011;11429;50.842;4.386;2022-12-19T00:23:33;23.65;;;13.13;;
22525;SDS011;11429;50.842;4.386;2022-12-19T00:26:33;28.58;;;14.02;;
22525;SDS011;11429;50.842;4.386;2022-12-19T00:28:56;28.38;;;13.75;;
22525;SDS011;11429;50.842;4.386;2022-12-19T00:31:24;21.63;;;11.35;;
22525;SDS011;11429;50.842;4.386;2022-12-19T00:33:53;24.63;;;14.95;;
22525;SDS011;11429;50.842;4.386;2022-12-19T00:36:20;28.88;;;15.50;;
22525;SDS011;11429;50.842;4.386;2022-12-19T00:38:47;23.85;;;13.90;;
22525;SDS011;11429;50.842;4.386;2022-12-19T00:41:14;23.63;;;13.85;;
22525;SDS011;11429;50.842;4.386;2022-12-19T00:43:42;27.35;;;14.80;;
22525;SDS011;11429;50.842;4.386;2022-12-19T00:46:12;23.35;;;14.23;;
22525;SDS011;11429;50.842;4.386;2022-12-19T00:48:39;25.73;;;14.02;;
22525;SDS011;11429;50.842;4.386;2022-12-19T00:51:06;26.98;;;14.48;;
22525;SDS011;11429;50.842;4.386;2022-12-19T00:53:37;28.33;;;13.85;;
22525;SDS011;11429;50.842;4.386;2022-12-19T00:56:04;27.25;;;15.00;;
22525;SDS011;11429;50.842;4.386;2022-12-19T00:58:32;26.92;;;14.65;;
22525;SDS011;11429;50.842;4.386;2022-12-19T01:01:04;27.27;;;14.02;;
22525;SDS011;11429;50.842;4.386;2022-12-19T01:03:31;27.90;;;16.00;;
22525;SDS011;11429;50.842;4.386;2022-12-19T01:05:57;24.92;;;13.88;;
22525;SDS011;11429;50.842;4.386;2022-12-19T01:08:23;25.80;;;15.07;;
22525;SDS011;11429;50.842;4.386;2022-12-19T01:10:48;23.77;;;14.30;;
22525;SDS011;11429;50.842;4.386;2022-12-19T01:13:15;23.40;;;13.88;;
22525;SDS011;11429;50.842;4.386;2022-12-19T01:15:43;28.35;;;14.38;;
22525;SDS011;11429;50.842;4.386;2022-12-19T01:18:09;23.50;;;12.43;;
22525;SDS011;11429;50.842;4.386;2022-12-19T01:20:39;25.85;;;14.80;;
22525;SDS011;11429;50.842;4.386;2022-12-19T01:23:07;29.45;;;15.23;;
22525;SDS011;11429;50.842;4.386;2022-12-19T01:25:34;25.90;;;14.73;;
22525;SDS011;11429;50.842;4.386;2022-12-19T01:28:01;26.30;;;15.02;;
22525;SDS011;11429;50.842;4.386;2022-12-19T01:30:27;21.38;;;13.02;;
22525;SDS011;11429;50.842;4.386;2022-12-19T01:32:54;23.80;;;13.43;;
22525;SDS011;11429;50.842;4.386;2022-12-19T01:35:21;19.95;;;12.02;;
22525;SDS011;11429;50.842;4.386;2022-12-19T01:37:47;21.63;;;12.68;;
22525;SDS011;11429;50.842;4.386;2022-12-19T01:40:13;24.60;;;13.48;;
22525;SDS011;11429;50.842;4.386;2022-12-19T01:42:39;22.50;;;12.70;;
22525;SDS011;11429;50.842;4.386;2022-12-19T01:47:55;20.65;;;12.65;;
22525;SDS011;11429;50.842;4.386;2022-12-19T01:50:31;19.95;;;13.02;;
22525;SDS011;11429;50.842;4.386;2022-12-19T01:53:04;19.23;;;11.88;;
22525;SDS011;11429;50.842;4.386;2022-12-19T01:55:32;19.60;;;11.70;;
22525;SDS011;11429;50.842;4.386;2022-12-19T01:58:00;22.60;;;12.40;;
22525;SDS011;11429;50.842;4.386;2022-12-19T02:00:26;21.35;;;11.27;;
22525;SDS011;11429;50.842;4.386;2022-12-19T02:03:04;17.50;;;11.27;;
22525;SDS011;11429;50.842;4.386;2022-12-19T02:05:35;18.88;;;11.93;;
22525;SDS011;11429;50.842;4.386;2022-12-19T02:08:02;20.00;;;11.95;;
22525;SDS011;11429;50.842;4.386;2022-12-19T02:10:29;18.23;;;10.90;;
22525;SDS011;11429;50.842;4.386;2022-12-19T02:12:54;18.60;;;11.82;;
22525;SDS011;11429;50.842;4.386;2022-12-19T02:15:20;19.08;;;11.30;;
22525;SDS011;11429;50.842;4.386;2022-12-19T02:33:54;16.67;;;9.95;;
22525;SDS011;11429;50.842;4.386;2022-12-19T02:41:40;19.25;;;11.93;;
22525;SDS011;11429;50.842;4.386;2022-12-19T02:44:19;16.45;;;10.88;;
22525;SDS011;11429;50.842;4.386;2022-12-19T02:46:50;18.73;;;11.93;;
22525;SDS011;11429;50.842;4.386;2022-12-19T02:49:17;15.07;;;9.95;;
22525;SDS011;11429;50.842;4.386;2022-12-19T02:51:43;15.50;;;11.13;;
22525;SDS011;11429;50.842;4.386;2022-12-19T02:54:08;19.60;;;11.68;;
22525;SDS011;11429;50.842;4.386;2022-12-19T03:01:56;19.40;;;12.88;;
22525;SDS011;11429;50.842;4.386;2022-12-19T03:04:33;15.48;;;10.98;;
22525;SDS011;11429;50.842;4.386;2022-12-19T03:07:27;18.58;;;11.25;;
22525;SDS011;11429;50.842;4.386;2022-12-19T03:12:48;17.88;;;12.18;;
22525;SDS011;11429;50.842;4.386;2022-12-19T03:15:20;16.98;;;10.82;;
22525;SDS011;11429;50.842;4.386;2022-12-19T03:17:47;19.73;;;12.57;;
22525;SDS011;11429;50.842;4.386;2022-12-19T03:22:57;20.77;;;13.30;;
22525;SDS011;11429;50.842;4.386;2022-12-19T03:25:24;20.67;;;12.98;;
22525;SDS011;11429;50.842;4.386;2022-12-19T03:27:50;17.92;;;11.93;;
22525;SDS011;11429;50.842;4.386;2022-12-19T03:30:17;20.23;;;12.13;;
22525;SDS011;11429;50.842;4.386;2022-12-19T03:32:43;16.70;;;11.68;;
22525;SDS011;11429;50.842;4.386;2022-12-19T03:35:17;17.30;;;10.48;;
22525;SDS011;11429;50.842;4.386;2022-12-19T03:37:49;16.50;;;10.77;;
22525;SDS011;11429;50.842;4.386;2022-12-19T03:40:20;19.02;;;12.77;;
22525;SDS011;11429;50.842;4.386;2022-12-19T03:42:48;17.05;;;10.13;;
22525;SDS011;11429;50.842;4.386;2022-12-19T03:48:07;15.55;;;11.10;;
22525;SDS011;11429;50.842;4.386;2022-12-19T03:51:29;16.55;;;11.20;;
22525;SDS011;11429;50.842;4.386;2022-12-19T03:56:43;14.35;;;10.07;;
22525;SDS011;11429;50.842;4.386;2022-12-19T04:01:46;13.00;;;8.57;;
22525;SDS011;11429;50.842;4.386;2022-12-19T04:04:14;13.90;;;9.23;;
22525;SDS011;11429;50.842;4.386;2022-12-19T04:06:40;14.77;;;9.90;;
22525;SDS011;11429;50.842;4.386;2022-12-19T04:09:07;11.07;;;8.25;;
22525;SDS011;11429;50.842;4.386;2022-12-19T04:11:36;10.88;;;7.30;;
22525;SDS011;11429;50.842;4.386;2022-12-19T04:14:07;12.95;;;9.20;;
22525;SDS011;11429;50.842;4.386;2022-12-19T04:19:27;12.05;;;8.00;;
22525;SDS011;11429;50.842;4.386;2022-12-19T04:22:09;10.05;;;7.72;;
22525;SDS011;11429;50.842;4.386;2022-12-19T04:24:40;8.45;;;6.20;;
22525;SDS011;11429;50.842;4.386;2022-12-19T04:27:09;10.90;;;7.97;;
22525;SDS011;11429;50.842;4.386;2022-12-19T04:29:37;11.98;;;7.78;;
22525;SDS011;11429;50.842;4.386;2022-12-19T04:32:04;10.88;;;6.45;;
22525;SDS011;11429;50.842;4.386;2022-12-19T04:34:33;10.50;;;6.93;;
22525;SDS011;11429;50.842;4.386;2022-12-19T04:36:59;10.18;;;7.72;;
22525;SDS011;11429;50.842;4.386;2022-12-19T04:39:25;10.32;;;7.00;;
22525;SDS011;11429;50.842;4.386;2022-12-19T04:41:52;9.80;;;7.18;;
22525;SDS011;11429;50.842;4.386;2022-12-19T04:44:18;11.40;;;7.93;;
22525;SDS011;11429;50.842;4.386;2022-12-19T04:46:43;9.65;;;7.35;;
22525;SDS011;11429;50.842;4.386;2022-12-19T04:49:09;10.13;;;7.72;;
22525;SDS011;11429;50.842;4.386;2022-12-19T04:51:35;11.45;;;7.68;;
22525;SDS011;11429;50.842;4.386;2022-12-19T04:54:01;11.18;;;7.95;;
22525;SDS011;11429;50.842;4.386;2022-12-19T04:56:26;10.32;;;7.53;;
22525;SDS011;11429;50.842;4.386;2022-12-19T04:58:56;10.52;;;7.47;;
22525;SDS011;11429;50.842;4.386;2022-12-19T05:01:22;10.43;;;6.93;;
22525;SDS011;11429;50.842;4.386;2022-12-19T05:03:48;9.00;;;6.40;;
22525;SDS011;11429;50.842;4.386;2022-12-19T05:06:14;8.95;;;6.43;;
22525;SDS011;11429;50.842;4.386;2022-12-19T05:08:40;8.68;;;7.00;;
22525;SDS011;11429;50.842;4.386;2022-12-19T05:11:08;10.98;;;7.10;;
22525;SDS011;11429;50.842;4.386;2022-12-19T05:13:35;9.43;;;6.45;;
22525;SDS011;11429;50.842;4.386;2022-12-19T05:16:02;9.85;;;6.65;;
22525;SDS011;11429;50.842;4.386;2022-12-19T05:18:29;10.38;;;6.90;;
22525;SDS011;11429;50.842;4.386;2022-12-19T05:20:55;8.88;;;5.75;;
22525;SDS011;11429;50.842;4.386;2022-12-19T05:23:21;11.35;;;6.72;;
22525;SDS011;11429;50.842;4.386;2022-12-19T05:25:47;8.52;;;5.82;;
22525;SDS011;11429;50.842;4.386;2022-12-19T05:28:15;9.90;;;6.57;;
22525;SDS011;11429;50.842;4.386;2022-12-19T05:30:41;7.90;;;6.22;;
22525;SDS011;11429;50.842;4.386;2022-12-19T05:33:07;9.50;;;6.32;;
22525;SDS011;11429;50.842;4.386;2022-12-19T05:35:33;9.55;;;5.82;;
22525;SDS011;11429;50.842;4.386;2022-12-19T05:38:00;13.10;;;6.53;;
22525;SDS011;11429;50.842;4.386;2022-12-19T05:40:26;10.57;;;6.30;;
22525;SDS011;11429;50.842;4.386;2022-12-19T05:42:52;8.65;;;6.20;;
22525;SDS011;11429;50.842;4.386;2022-12-19T05:45:18;9.55;;;6.13;;
22525;SDS011;11429;50.842;4.386;2022-12-19T05:47:44;9.82;;;6.35;;
22525;SDS011;11429;50.842;4.386;2022-12-19T05:50:14;9.23;;;6.35;;
22525;SDS011;11429;50.842;4.386;2022-12-19T05:52:42;8.30;;;6.13;;
22525;SDS011;11429;50.842;4.386;2022-12-19T05:55:08;9.63;;;6.35;;
22525;SDS011;11429;50.842;4.386;2022-12-19T05:57:34;8.02;;;5.28;;
22525;SDS011;11429;50.842;4.386;2022-12-19T06:00:00;8.65;;;5.90;;
22525;SDS011;11429;50.842;4.386;2022-12-19T06:02:27;7.75;;;6.30;;
22525;SDS011;11429;50.842;4.386;2022-12-19T06:04:56;8.20;;;5.50;;
22525;SDS011;11429;50.842;4.386;2022-12-19T06:07:22;8.23;;;6.20;;
22525;SDS011;11429;50.842;4.386;2022-12-19T06:09:47;8.65;;;6.25;;
22525;SDS011;11429;50.842;4.386;2022-12-19T06:12:13;7.15;;;5.68;;
22525;SDS011;11429;50.842;4.386;2022-12-19T06:14:39;9.95;;;6.18;;
22525;SDS011;11429;50.842;4.386;2022-12-19T06:17:04;11.55;;;6.15;;
22525;SDS011;11429;50.842;4.386;2022-12-19T06:19:30;8.52;;;6.30;;
22525;SDS011;11429;50.842;4.386;2022-12-19T06:21:56;10.32;;;6.13;;
22525;SDS011;11429;50.842;4.386;2022-12-19T06:24:23;8.82;;;5.63;;
22525;SDS011;11429;50.842;4.386;2022-12-19T06:26:49;7.63;;;5.20;;
22525;SDS011;11429;50.842;4.386;2022-12-19T06:29:14;6.55;;;5.35;;
22525;SDS011;11429;50.842;4.386;2022-12-19T06:31:40;8.38;;;5.20;;
22525;SDS011;11429;50.842;4.386;2022-12-19T06:34:10;8.90;;;5.55;;
22525;SDS011;11429;50.842;4.386;2022-12-19T06:36:36;8.70;;;5.28;;
22525;SDS011;11429;50.842;4.386;2022-12-19T06:39:03;9.55;;;5.85;;
22525;SDS011;11429;50.842;4.386;2022-12-19T06:41:29;7.40;;;5.32;;
22525;SDS011;11429;50.842;4.386;2022-12-19T06:44:14;8.60;;;6.03;;
22525;SDS011;11429;50.842;4.386;2022-12-19T06:46:41;8.88;;;6.20;;
22525;SDS011;11429;50.842;4.386;2022-12-19T06:49:08;7.93;;;5.82;;
22525;SDS011;11429;50.842;4.386;2022-12-19T06:51:35;9.02;;;5.65;;
22525;SDS011;11429;50.842;4.386;2022-12-19T06:54:03;8.07;;;5.57;;
22525;SDS011;11429;50.842;4.386;2022-12-19T06:56:33;8.77;;;5.45;;
22525;SDS011;11429;50.842;4.386;2022-12-19T06:59:00;8.88;;;5.82;;
22525;SDS011;11429;50.842;4.386;2022-12-19T07:04:14;7.57;;;5.30;;
22525;SDS011;11429;50.842;4.386;2022-12-19T07:06:47;9.30;;;6.00;;
22525;SDS011;11429;50.842;4.386;2022-12-19T07:09:12;10.45;;;5.78;;
22525;SDS011;11429;50.842;4.386;2022-12-19T07:11:38;8.25;;;5.40;;
22525;SDS011;11429;50.842;4.386;2022-12-19T07:14:03;9.13;;;5.38;;
22525;SDS011;11429;50.842;4.386;2022-12-19T07:16:29;8.70;;;5.07;;
22525;SDS011;11429;50.842;4.386;2022-12-19T07:18:55;8.30;;;4.28;;
22525;SDS011;11429;50.842;4.386;2022-12-19T07:21:20;8.93;;;5.20;;
22525;SDS011;11429;50.842;4.386;2022-12-19T07:23:46;10.35;;;6.07;;
22525;SDS011;11429;50.842;4.386;2022-12-19T07:26:12;7.50;;;5.47;;
22525;SDS011;11429;50.842;4.386;2022-12-19T07:28:38;6.80;;;5.00;;
22525;SDS011;11429;50.842;4.386;2022-12-19T07:31:04;9.75;;;5.70;;
22525;SDS011;11429;50.842;4.386;2022-12-19T07:33:30;7.88;;;5.53;;
22525;SDS011;11429;50.842;4.386;2022-12-19T07:35:55;8.25;;;5.60;;
22525;SDS011;11429;50.842;4.386;2022-12-19T07:38:21;8.73;;;5.65;;
22525;SDS011;11429;50.842;4.386;2022-12-19T07:40:47;7.75;;;5.40;;
22525;SDS011;11429;50.842;4.386;2022-12-19T07:43:12;6.63;;;5.00;;
22525;SDS011;11429;50.842;4.386;2022-12-19T07:45:38;8.98;;;4.85;;
22525;SDS011;11429;50.842;4.386;2022-12-19T07:48:04;5.50;;;4.43;;
22525;SDS011;11429;50.842;4.386;2022-12-19T07:50:32;6.43;;;4.20;;
22525;SDS011;11429;50.842;4.386;2022-12-19T07:52:59;7.22;;;5.05;;
22525;SDS011;11429;50.842;4.386;2022-12-19T07:55:25;6.53;;;4.88;;
22525;SDS011;11429;50.842;4.386;2022-12-19T07:57:51;6.35;;;4.60;;
22525;SDS011;11429;50.842;4.386;2022-12-19T08:00:17;8.88;;;5.50;;
22525;SDS011;11429;50.842;4.386;2022-12-19T08:02:43;7.28;;;5.00;;
22525;SDS011;11429;50.842;4.386;2022-12-19T08:05:12;7.43;;;4.78;;
22525;SDS011;11429;50.842;4.386;2022-12-19T08:07:38;10.52;;;5.10;;
22525;SDS011;11429;50.842;4.386;2022-12-19T08:10:04;7.72;;;4.95;;
22525;SDS011;11429;50.842;4.386;2022-12-19T08:12:34;9.18;;;4.63;;
22525;SDS011;11429;50.842;4.386;2022-12-19T08:15:00;7.38;;;4.78;;
22525;SDS011;11429;50.842;4.386;2022-12-19T08:17:26;9.80;;;4.85;;
22525;SDS011;11429;50.842;4.386;2022-12-19T08:19:51;6.78;;;4.72;;
22525;SDS011;11429;50.842;4.386;2022-12-19T08:22:18;8.15;;;4.90;;
22525;SDS011;11429;50.842;4.386;2022-12-19T08:24:44;8.55;;;5.00;;
22525;SDS011;11429;50.842;4.386;2022-12-19T08:27:09;8.95;;;5.60;;
22525;SDS011;11429;50.842;4.386;2022-12-19T08:29:35;6.78;;;5.00;;
22525;SDS011;11429;50.842;4.386;2022-12-19T08:32:01;7.57;;;5.28;;
22525;SDS011;11429;50.842;4.386;2022-12-19T08:34:27;8.38;;;4.88;;
22525;SDS011;11429;50.842;4.386;2022-12-19T08:36:52;5.82;;;4.28;;
22525;SDS011;11429;50.842;4.386;2022-12-19T08:39:18;6.75;;;4.53;;
22525;SDS011;11429;50.842;4.386;2022-12-19T08:41:44;10.35;;;4.18;;
22525;SDS011;11429;50.842;4.386;2022-12-19T08:44:10;10.00;;;4.60;;
22525;SDS011;11429;50.842;4.386;2022-12-19T08:46:37;7.75;;;5.03;;
22525;SDS011;11429;50.842;4.386;2022-12-19T08:49:02;8.60;;;4.80;;
22525;SDS011;11429;50.842;4.386;2022-12-19T08:51:28;5.70;;;3.33;;
22525;SDS011;11429;50.842;4.386;2022-12-19T08:53:54;5.60;;;4.13;;
22525;SDS011;11429;50.842;4.386;2022-12-19T08:56:20;6.93;;;4.60;;
22525;SDS011;11429;50.842;4.386;2022-12-19T08:58:46;6.70;;;4.95;;
22525;SDS011;11429;50.842;4.386;2022-12-19T09:01:13;8.13;;;4.05;;
22525;SDS011;11429;50.842;4.386;2022-12-19T09:03:43;6.28;;;4.15;;
22525;SDS011;11429;50.842;4.386;2022-12-19T09:06:11;6.97;;;4.35;;
22525;SDS011;11429;50.842;4.386;2022-12-19T09:08:38;7.68;;;4.43;;
22525;SDS011;11429;50.842;4.386;2022-12-19T09:11:08;6.05;;;4.10;;
22525;SDS011;11429;50.842;4.386;2022-12-19T09:13:36;6.72;;;3.85;;
22525;SDS011;11429;50.842;4.386;2022-12-19T09:18:30;6.68;;;4.10;;
22525;SDS011;11429;50.842;4.386;2022-12-19T09:20:57;5.68;;;3.97;;
22525;SDS011;11429;50.842;4.386;2022-12-19T09:23:24;5.75;;;4.30;;
22525;SDS011;11429;50.842;4.386;2022-12-19T09:25:51;6.35;;;3.85;;
22525;SDS011;11429;50.842;4.386;2022-12-19T09:28:18;7.30;;;4.65;;
22525;SDS011;11429;50.842;4.386;2022-12-19T09:30:44;6.85;;;4.38;;
22525;SDS011;11429;50.842;4.386;2022-12-19T09:33:10;7.82;;;4.38;;
22525;SDS011;11429;50.842;4.386;2022-12-19T09:35:36;8.88;;;4.22;;
22525;SDS011;11429;50.842;4.386;2022-12-19T09:38:02;5.35;;;4.20;;
22525;SDS011;11429;50.842;4.386;2022-12-19T09:40:29;7.05;;;4.40;;
22525;SDS011;11429;50.842;4.386;2022-12-19T09:43:22;7.13;;;4.18;;
22525;SDS011;11429;50.842;4.386;2022-12-19T09:48:34;7.57;;;4.25;;
22525;SDS011;11429;50.842;4.386;2022-12-19T09:51:13;8.07;;;4.60;;
22525;SDS011;11429;50.842;4.386;2022-12-19T09:56:25;7.15;;;3.75;;
22525;SDS011;11429;50.842;4.386;2022-12-19T09:58:59;5.82;;;3.65;;
22525;SDS011;11429;50.842;4.386;2022-12-19T10:01:49;7.90;;;4.30;;
22525;SDS011;11429;50.842;4.386;2022-12-19T10:04:23;6.47;;;4.03;;
22525;SDS011;11429;50.842;4.386;2022-12-19T10:06:51;6.18;;;4.07;;
22525;SDS011;11429;50.842;4.386;2022-12-19T10:09:20;7.68;;;4.32;;
22525;SDS011;11429;50.842;4.386;2022-12-19T10:15:00;5.43;;;3.35;;
22525;SDS011;11429;50.842;4.386;2022-12-19T10:20:36;7.13;;;3.42;;
22525;SDS011;11429;50.842;4.386;2022-12-19T10:28:55;6.75;;;3.67;;
22525;SDS011;11429;50.842;4.386;2022-12-19T10:34:32;5.30;;;3.10;;
22525;SDS011;11429;50.842;4.386;2022-12-19T10:37:06;7.15;;;3.28;;
22525;SDS011;11429;50.842;4.386;2022-12-19T10:39:56;5.55;;;3.53;;
22525;SDS011;11429;50.842;4.386;2022-12-19T10:42:50;5.97;;;3.08;;
22525;SDS011;11429;50.842;4.386;2022-12-19T10:45:33;5.97;;;3.45;;
22525;SDS011;11429;50.842;4.386;2022-12-19T10:48:07;4.47;;;3.00;;
22525;SDS011;11429;50.842;4.386;2022-12-19T10:50:39;6.97;;;3.20;;
22525;SDS011;11429;50.842;4.386;2022-12-19T10:53:09;4.85;;;2.85;;
22525;SDS011;11429;50.842;4.386;2022-12-19T10:55:37;6.70;;;3.25;;
22525;SDS011;11429;50.842;4.386;2022-12-19T10:58:18;5.20;;;3.17;;
22525;SDS011;11429;50.842;4.386;2022-12-19T11:03:25;6.45;;;2.80;;
22525;SDS011;11429;50.842;4.386;2022-12-19T11:05:52;4.70;;;2.72;;
22525;SDS011;11429;50.842;4.386;2022-12-19T11:08:23;3.42;;;2.63;;
22525;SDS011;11429;50.842;4.386;2022-12-19T11:11:17;5.82;;;2.30;;
22525;SDS011;11429;50.842;4.386;2022-12-19T11:13:43;3.75;;;2.60;;
22525;SDS011;11429;50.842;4.386;2022-12-19T11:16:11;5.00;;;2.45;;
22525;SDS011;11429;50.842;4.386;2022-12-19T11:18:45;4.95;;;2.58;;
22525;SDS011;11429;50.842;4.386;2022-12-19T11:23:44;4.28;;;2.67;;
22525;SDS011;11429;50.842;4.386;2022-12-19T11:26:26;4.55;;;2.30;;
22525;SDS011;11429;50.842;4.386;2022-12-19T11:28:56;6.43;;;2.75;;
22525;SDS011;11429;50.842;4.386;2022-12-19T11:31:41;4.70;;;2.40;;
22525;SDS011;11429;50.842;4.386;2022-12-19T11:34:15;3.88;;;2.47;;
22525;SDS011;11429;50.842;4.386;2022-12-19T11:36:51;5.50;;;2.60;;
22525;SDS011;11429;50.842;4.386;2022-12-19T11:39:34;3.92;;;2.80;;
22525;SDS011;11429;50.842;4.386;2022-12-19T11:58:10;7.05;;;2.60;;
22525;SDS011;11429;50.842;4.386;2022-12-19T12:00:48;3.22;;;2.28;;
22525;SDS011;11429;50.842;4.386;2022-12-19T12:06:15;4.20;;;2.33;;
22525;SDS011;11429;50.842;4.386;2022-12-19T12:08:53;4.25;;;2.10;;
22525;SDS011;11429;50.842;4.386;2022-12-19T12:25:12;2.85;;;2.08;;
22525;SDS011;11429;50.842;4.386;2022-12-19T12:28:00;5.60;;;2.80;;
22525;SDS011;11429;50.842;4.386;2022-12-19T12:33:24;3.95;;;2.42;;
22525;SDS011;11429;50.842;4.386;2022-12-19T12:36:36;4.50;;;2.45;;
22525;SDS011;11429;50.842;4.386;2022-12-19T12:41:47;4.05;;;2.13;;
22525;SDS011;11429;50.842;4.386;2022-12-19T12:44:38;3.63;;;2.33;;
22525;SDS011;11429;50.842;4.386;2022-12-19T12:49:42;5.53;;;2.50;;
22525;SDS011;11429;50.842;4.386;2022-12-19T12:52:37;3.42;;;2.13;;
22525;SDS011;11429;50.842;4.386;2022-12-19T12:55:11;4.07;;;2.20;;
22525;SDS011;11429;50.842;4.386;2022-12-19T12:57:42;5.50;;;2.90;;
22525;SDS011;11429;50.842;4.386;2022-12-19T13:00:27;4.10;;;2.05;;
22525;SDS011;11429;50.842;4.386;2022-12-19T13:05:37;5.38;;;2.33;;
22525;SDS011;11429;50.842;4.386;2022-12-19T13:08:25;6.40;;;2.45;;
22525;SDS011;11429;50.842;4.386;2022-12-19T13:10:53;3.00;;;2.05;;
22525;SDS011;11429;50.842;4.386;2022-12-19T13:13:46;3.13;;;2.15;;
22525;SDS011;11429;50.842;4.386;2022-12-19T13:19:12;5.45;;;2.50;;
22525;SDS011;11429;50.842;4.386;2022-12-19T13:24:50;4.80;;;2.40;;
22525;SDS011;11429;50.842;4.386;2022-12-19T13:40:13;3.30;;;1.80;;
22525;SDS011;11429;50.842;4.386;2022-12-19T13:49:04;3.90;;;2.03;;
22525;SDS011;11429;50.842;4.386;2022-12-19T13:51:41;3.92;;;2.17;;
22525;SDS011;11429;50.842;4.386;2022-12-19T13:54:17;4.15;;;1.92;;
22525;SDS011;11429;50.842;4.386;2022-12-19T13:56:45;2.97;;;2.22;;
22525;SDS011;11429;50.842;4.386;2022-12-19T13:59:11;4.00;;;1.92;;
22525;SDS011;11429;50.842;4.386;2022-12-19T14:01:37;5.72;;;2.25;;
22525;SDS011;11429;50.842;4.386;2022-12-19T14:06:42;3.92;;;2.70;;
22525;SDS011;11429;50.842;4.386;2022-12-19T14:09:23;8.48;;;2.50;;
22525;SDS011;11429;50.842;4.386;2022-12-19T14:12:01;4.57;;;2.38;;
22525;SDS011;11429;50.842;4.386;2022-12-19T14:14:30;5.53;;;2.33;;
22525;SDS011;11429;50.842;4.386;2022-12-19T14:17:16;5.05;;;2.17;;
22525;SDS011;11429;50.842;4.386;2022-12-19T14:19:46;5.22;;;2.20;;
22525;SDS011;11429;50.842;4.386;2022-12-19T14:27:27;4.70;;;2.42;;
22525;SDS011;11429;50.842;4.386;2022-12-19T14:30:04;4.53;;;2.53;;
22525;SDS011;11429;50.842;4.386;2022-12-19T14:32:32;4.93;;;2.28;;
22525;SDS011;11429;50.842;4.386;2022-12-19T14:35:02;6.25;;;2.63;;
22525;SDS011;11429;50.842;4.386;2022-12-19T14:37:34;3.72;;;2.20;;
22525;SDS011;11429;50.842;4.386;2022-12-19T14:40:10;5.32;;;1.92;;
22525;SDS011;11429;50.842;4.386;2022-12-19T14:42:46;3.10;;;2.15;;
22525;SDS011;11429;50.842;4.386;2022-12-19T14:48:23;4.80;;;1.83;;
22525;SDS011;11429;50.842;4.386;2022-12-19T14:53:36;4.22;;;2.50;;
22525;SDS011;11429;50.842;4.386;2022-12-19T14:56:24;4.85;;;2.30;;
22525;SDS011;11429;50.842;4.386;2022-12-19T14:58:53;5.55;;;2.58;;
22525;SDS011;11429;50.842;4.386;2022-12-19T15:01:23;3.25;;;2.10;;
22525;SDS011;11429;50.842;4.386;2022-12-19T15:03:54;4.85;;;2.25;;
22525;SDS011;11429;50.842;4.386;2022-12-19T15:06:25;3.30;;;2.08;;
22525;SDS011;11429;50.842;4.386;2022-12-19T15:08:56;4.05;;;2.28;;
22525;SDS011;11429;50.842;4.386;2022-12-19T15:11:27;4.82;;;2.22;;
22525;SDS011;11429;50.842;4.386;2022-12-19T15:14:26;4.03;;;2.70;;
22525;SDS011;11429;50.842;4.386;2022-12-19T15:17:27;4.35;;;2.45;;
22525;SDS011;11429;50.842;4.386;2022-12-19T15:19:49;4.15;;;1.98;;
22525;SDS011;11429;50.842;4.386;2022-12-19T15:22:15;4.35;;;2.28;;
22525;SDS011;11429;50.842;4.386;2022-12-19T15:24:42;5.13;;;2.42;;
22525;SDS011;11429;50.842;4.386;2022-12-19T15:27:12;3.78;;;2.00;;
22525;SDS011;11429;50.842;4.386;2022-12-19T15:29:41;3.88;;;2.28;;
22525;SDS011;11429;50.842;4.386;2022-12-19T15:32:15;3.50;;;2.47;;
22525;SDS011;11429;50.842;4.386;2022-12-19T15:34:42;5.45;;;2.03;;
22525;SDS011;11429;50.842;4.386;2022-12-19T15:37:10;5.65;;;2.45;;
22525;SDS011;11429;50.842;4.386;2022-12-19T15:39:37;3.75;;;2.30;;
22525;SDS011;11429;50.842;4.386;2022-12-19T15:42:02;4.82;;;2.58;;
22525;SDS011;11429;50.842;4.386;2022-12-19T15:47:12;4.38;;;2.60;;
22525;SDS011;11429;50.842;4.386;2022-12-19T15:50:00;4.95;;;2.33;;
22525;SDS011;11429;50.842;4.386;2022-12-19T15:52:30;5.38;;;2.60;;
22525;SDS011;11429;50.842;4.386;2022-12-19T15:54:57;4.05;;;2.35;;
22525;SDS011;11429;50.842;4.386;2022-12-19T15:57:28;5.10;;;2.20;;
22525;SDS011;11429;50.842;4.386;2022-12-19T16:00:01;4.72;;;2.40;;
22525;SDS011;11429;50.842;4.386;2022-12-19T16:02:30;4.55;;;2.50;;
22525;SDS011;11429;50.842;4.386;2022-12-19T16:04:57;4.55;;;2.35;;
22525;SDS011;11429;50.842;4.386;2022-12-19T16:07:23;3.72;;;2.05;;
22525;SDS011;11429;50.842;4.386;2022-12-19T16:09:49;3.90;;;2.50;;
22525;SDS011;11429;50.842;4.386;2022-12-19T16:12:20;3.20;;;2.30;;
22525;SDS011;11429;50.842;4.386;2022-12-19T16:14:58;3.72;;;2.22;;
22525;SDS011;11429;50.842;4.386;2022-12-19T16:17:25;4.43;;;2.28;;
22525;SDS011;11429;50.842;4.386;2022-12-19T16:19:55;3.10;;;2.30;;
22525;SDS011;11429;50.842;4.386;2022-12-19T16:22:25;7.70;;;2.63;;
22525;SDS011;11429;50.842;4.386;2022-12-19T16:24:54;3.92;;;2.60;;
22525;SDS011;11429;50.842;4.386;2022-12-19T16:27:23;5.68;;;2.20;;
22525;SDS011;11429;50.842;4.386;2022-12-19T16:29:52;5.40;;;2.17;;
22525;SDS011;11429;50.842;4.386;2022-12-19T16:32:20;9.35;;;2.58;;
22525;SDS011;11429;50.842;4.386;2022-12-19T16:34:48;3.80;;;2.03;;
22525;SDS011;11429;50.842;4.386;2022-12-19T16:37:15;6.32;;;2.67;;
22525;SDS011;11429;50.842;4.386;2022-12-19T16:39:41;5.38;;;2.88;;
22525;SDS011;11429;50.842;4.386;2022-12-19T16:42:16;5.75;;;2.30;;
22525;SDS011;11429;50.842;4.386;2022-12-19T16:44:43;6.80;;;3.50;;
22525;SDS011;11429;50.842;4.386;2022-12-19T16:47:14;4.55;;;2.80;;
22525;SDS011;11429;50.842;4.386;2022-12-19T16:49:42;3.58;;;2.35;;
22525;SDS011;11429;50.842;4.386;2022-12-19T16:52:08;9.15;;;2.80;;
22525;SDS011;11429;50.842;4.386;2022-12-19T16:54:34;4.40;;;2.50;;
22525;SDS011;11429;50.842;4.386;2022-12-19T16:57:00;5.57;;;2.90;;
22525;SDS011;11429;50.842;4.386;2022-12-19T16:59:32;4.50;;;2.83;;
22525;SDS011;11429;50.842;4.386;2022-12-19T17:02:00;5.72;;;2.60;;
22525;SDS011;11429;50.842;4.386;2022-12-19T17:04:27;6.25;;;2.72;;
22525;SDS011;11429;50.842;4.386;2022-12-19T17:06:57;5.45;;;2.65;;
22525;SDS011;11429;50.842;4.386;2022-12-19T17:09:34;4.80;;;2.70;;
22525;SDS011;11429;50.842;4.386;2022-12-19T17:11:59;5.82;;;3.30;;
22525;SDS011;11429;50.842;4.386;2022-12-19T17:14:26;5.20;;;2.85;;
22525;SDS011;11429;50.842;4.386;2022-12-19T17:16:55;7.45;;;3.17;;
22525;SDS011;11429;50.842;4.386;2022-12-19T17:19:33;6.65;;;2.72;;
22525;SDS011;11429;50.842;4.386;2022-12-19T17:22:02;5.38;;;2.90;;
22525;SDS011;11429;50.842;4.386;2022-12-19T17:24:34;4.90;;;3.40;;
22525;SDS011;11429;50.842;4.386;2022-12-19T17:27:00;4.43;;;2.88;;
22525;SDS011;11429;50.842;4.386;2022-12-19T17:29:26;5.68;;;3.10;;
22525;SDS011;11429;50.842;4.386;2022-12-19T17:31:51;6.68;;;3.30;;
22525;SDS011;11429;50.842;4.386;2022-12-19T17:36:47;6.05;;;3.05;;
22525;SDS011;11429;50.842;4.386;2022-12-19T17:39:18;7.20;;;3.20;;
22525;SDS011;11429;50.842;4.386;2022-12-19T17:41:45;6.10;;;3.70;;